sensor_id;sensor_type;location;lat;lon;timestamp;P1;durP1;ratioP1;P2;durP2;ratioP2
60233;SDS011;49514;43.538;-5.708;2023-12-29T00:00:22;28.73;;;11.75;;
60233;SDS011;49514;43.538;-5.708;2023-12-29T00:02:49;39.25;;;17.15;;
60233;SDS011;49514;43.538;-5.708;2023-12-29T00:05:16;39.58;;;17.38;;
60233;SDS011;49514;43.538;-5.708;2023-12-29T00:07:43;40.60;;;17.42;;
60233;SDS011;49514;43.538;-5.708;2023-12-29T00:10:10;35.33;;;15.32;;
60233;SDS011;49514;43.538;-5.708;2023-12-29T00:12:37;36.90;;;15.48;;
60233;SDS011;49514;43.538;-5.708;2023-12-29T00:15:04;43.42;;;15.88;;
60233;SDS011;49514;43.538;-5.708;2023-12-29T00:17:31;44.50;;;16.65;;
60233;SDS011;49514;43.538;-5.708;2023-12-29T00:19:58;50.25;;;16.85;;
60233;SDS011;49514;43.538;-5.708;2023-12-29T00:22:25;42.95;;;16.35;;
60233;SDS011;49514;43.538;-5.708;2023-12-29T00:24:53;39.60;;;13.70;;
60233;SDS011;49514;43.538;-5.708;2023-12-29T00:27:20;38.60;;;13.45;;
60233;SDS011;49514;43.538;-5.708;2023-12-29T00:29:49;27.13;;;11.13;;
60233;SDS011;49514;43.538;-5.708;2023-12-29T00:32:17;27.15;;;10.55;;
60233;SDS011;49514;43.538;-5.708;2023-12-29T00:34:44;24.30;;;10.05;;
60233;SDS011;49514;43.538;-5.708;2023-12-29T00:37:10;28.55;;;10.70;;
60233;SDS011;49514;43.538;-5.708;2023-12-29T00:39:37;31.40;;;11.55;;
60233;SDS011;49514;43.538;-5.708;2023-12-29T00:42:06;27.95;;;11.05;;
60233;SDS011;49514;43.538;-5.708;2023-12-29T00:44:33;36.78;;;12.23;;
60233;SDS011;49514;43.538;-5.708;2023-12-29T00:47:01;35.50;;;12.07;;
60233;SDS011;49514;43.538;-5.708;2023-12-29T00:49:28;33.63;;;12.23;;
60233;SDS011;49514;43.538;-5.708;2023-12-29T00:51:54;33.13;;;11.30;;
60233;SDS011;49514;43.538;-5.708;2023-12-29T00:54:21;30.38;;;11.20;;
60233;SDS011;49514;43.538;-5.708;2023-12-29T00:56:51;32.33;;;9.23;;
60233;SDS011;49514;43.538;-5.708;2023-12-29T00:59:18;28.15;;;9.63;;
60233;SDS011;49514;43.538;-5.708;2023-12-29T01:01:48;24.02;;;8.48;;
60233;SDS011;49514;43.538;-5.708;2023-12-29T01:04:15;25.88;;;8.77;;
60233;SDS011;49514;43.538;-5.708;2023-12-29T01:06:41;18.95;;;7.00;;
60233;SDS011;49514;43.538;-5.708;2023-12-29T01:09:08;23.15;;;7.78;;
60233;SDS011;49514;43.538;-5.708;2023-12-29T01:11:36;23.77;;;7.68;;
60233;SDS011;49514;43.538;-5.708;2023-12-29T01:14:03;21.92;;;6.38;;
60233;SDS011;49514;43.538;-5.708;2023-12-29T01:16:29;25.55;;;7.13;;
60233;SDS011;49514;43.538;-5.708;2023-12-29T01:18:56;17.73;;;6.57;;
60233;SDS011;49514;43.538;-5.708;2023-12-29T01:21:23;20.73;;;6.90;;
60233;SDS011;49514;43.538;-5.708;2023-12-29T01:23:49;17.10;;;6.07;;
60233;SDS011;49514;43.538;-5.708;2023-12-29T01:26:16;22.20;;;7.65;;
60233;SDS011;49514;43.538;-5.708;2023-12-29T01:28:43;21.42;;;7.35;;
60233;SDS011;49514;43.538;-5.708;2023-12-29T01:31:09;21.38;;;6.93;;
60233;SDS011;49514;43.538;-5.708;2023-12-29T01:33:37;19.83;;;7.10;;
60233;SDS011;49514;43.538;-5.708;2023-12-29T01:36:03;24.52;;;9.10;;
60233;SDS011;49514;43.538;-5.708;2023-12-29T01:38:30;26.60;;;9.00;;
60233;SDS011;49514;43.538;-5.708;2023-12-29T01:40:57;25.08;;;8.20;;
60233;SDS011;49514;43.538;-5.708;2023-12-29T01:43:24;21.85;;;7.93;;
60233;SDS011;49514;43.538;-5.708;2023-12-29T01:45:50;24.55;;;7.78;;
60233;SDS011;49514;43.538;-5.708;2023-12-29T01:48:18;22.33;;;7.43;;
60233;SDS011;49514;43.538;-5.708;2023-12-29T01:50:45;21.85;;;7.13;;
60233;SDS011;49514;43.538;-5.708;2023-12-29T01:53:11;16.10;;;6.45;;
60233;SDS011;49514;43.538;-5.708;2023-12-29T01:55:38;19.70;;;7.20;;
60233;SDS011;49514;43.538;-5.708;2023-12-29T01:58:05;19.92;;;6.25;;
60233;SDS011;49514;43.538;-5.708;2023-12-29T02:00:32;16.42;;;6.22;;
60233;SDS011;49514;43.538;-5.708;2023-12-29T02:03:00;17.30;;;6.60;;
60233;SDS011;49514;43.538;-5.708;2023-12-29T02:05:27;15.05;;;5.28;;
60233;SDS011;49514;43.538;-5.708;2023-12-29T02:07:55;14.48;;;6.32;;
60233;SDS011;49514;43.538;-5.708;2023-12-29T02:10:22;22.20;;;7.10;;
60233;SDS011;49514;43.538;-5.708;2023-12-29T02:12:50;13.43;;;5.45;;
60233;SDS011;49514;43.538;-5.708;2023-12-29T02:15:20;16.02;;;5.97;;
60233;SDS011;49514;43.538;-5.708;2023-12-29T02:17:49;20.45;;;6.55;;
60233;SDS011;49514;43.538;-5.708;2023-12-29T02:20:23;22.05;;;6.97;;
60233;SDS011;49514;43.538;-5.708;2023-12-29T02:22:50;19.60;;;6.45;;
60233;SDS011;49514;43.538;-5.708;2023-12-29T02:25:17;20.30;;;6.80;;
60233;SDS011;49514;43.538;-5.708;2023-12-29T02:32:59;18.90;;;7.10;;
60233;SDS011;49514;43.538;-5.708;2023-12-29T02:35:30;18.38;;;7.07;;
60233;SDS011;49514;43.538;-5.708;2023-12-29T02:38:02;16.63;;;6.68;;
60233;SDS011;49514;43.538;-5.708;2023-12-29T02:40:29;21.17;;;6.50;;
60233;SDS011;49514;43.538;-5.708;2023-12-29T02:42:56;19.98;;;7.18;;
60233;SDS011;49514;43.538;-5.708;2023-12-29T02:45:22;20.10;;;6.75;;
60233;SDS011;49514;43.538;-5.708;2023-12-29T02:47:49;20.00;;;6.70;;
60233;SDS011;49514;43.538;-5.708;2023-12-29T02:50:16;15.32;;;6.25;;
60233;SDS011;49514;43.538;-5.708;2023-12-29T02:52:43;18.75;;;6.68;;
60233;SDS011;49514;43.538;-5.708;2023-12-29T02:55:10;18.45;;;6.68;;
60233;SDS011;49514;43.538;-5.708;2023-12-29T02:57:37;16.95;;;6.68;;
60233;SDS011;49514;43.538;-5.708;2023-12-29T03:00:05;16.25;;;7.07;;
60233;SDS011;49514;43.538;-5.708;2023-12-29T03:02:32;18.45;;;6.60;;
60233;SDS011;49514;43.538;-5.708;2023-12-29T03:04:59;15.50;;;6.30;;
60233;SDS011;49514;43.538;-5.708;2023-12-29T03:07:26;15.93;;;6.65;;
60233;SDS011;49514;43.538;-5.708;2023-12-29T03:09:53;24.10;;;8.48;;
60233;SDS011;49514;43.538;-5.708;2023-12-29T03:12:20;19.98;;;7.28;;
60233;SDS011;49514;43.538;-5.708;2023-12-29T03:14:46;17.25;;;7.90;;
60233;SDS011;49514;43.538;-5.708;2023-12-29T03:17:13;16.77;;;7.38;;
60233;SDS011;49514;43.538;-5.708;2023-12-29T03:19:41;20.10;;;7.97;;
60233;SDS011;49514;43.538;-5.708;2023-12-29T03:22:07;22.27;;;8.40;;
60233;SDS011;49514;43.538;-5.708;2023-12-29T03:24:36;23.70;;;8.18;;
60233;SDS011;49514;43.538;-5.708;2023-12-29T03:27:05;21.50;;;5.60;;
60233;SDS011;49514;43.538;-5.708;2023-12-29T03:29:31;16.00;;;5.47;;
60233;SDS011;49514;43.538;-5.708;2023-12-29T03:31:58;20.05;;;5.57;;
60233;SDS011;49514;43.538;-5.708;2023-12-29T03:34:25;23.63;;;5.30;;
60233;SDS011;49514;43.538;-5.708;2023-12-29T03:36:51;17.92;;;4.85;;
60233;SDS011;49514;43.538;-5.708;2023-12-29T03:39:18;14.48;;;4.65;;
60233;SDS011;49514;43.538;-5.708;2023-12-29T03:41:44;16.92;;;5.05;;
60233;SDS011;49514;43.538;-5.708;2023-12-29T03:44:11;16.17;;;4.75;;
60233;SDS011;49514;43.538;-5.708;2023-12-29T03:46:38;16.20;;;4.68;;
60233;SDS011;49514;43.538;-5.708;2023-12-29T03:49:05;17.13;;;4.63;;
60233;SDS011;49514;43.538;-5.708;2023-12-29T03:51:32;18.88;;;4.35;;
60233;SDS011;49514;43.538;-5.708;2023-12-29T03:53:58;17.88;;;3.72;;
60233;SDS011;49514;43.538;-5.708;2023-12-29T03:56:25;18.60;;;3.83;;
60233;SDS011;49514;43.538;-5.708;2023-12-29T03:58:52;15.15;;;3.75;;
60233;SDS011;49514;43.538;-5.708;2023-12-29T04:01:18;18.15;;;4.18;;
60233;SDS011;49514;43.538;-5.708;2023-12-29T04:03:46;13.70;;;3.55;;
60233;SDS011;49514;43.538;-5.708;2023-12-29T04:06:12;16.17;;;4.07;;
60233;SDS011;49514;43.538;-5.708;2023-12-29T04:08:39;12.38;;;3.60;;
60233;SDS011;49514;43.538;-5.708;2023-12-29T04:11:05;11.07;;;3.38;;
60233;SDS011;49514;43.538;-5.708;2023-12-29T04:13:32;16.98;;;3.70;;
60233;SDS011;49514;43.538;-5.708;2023-12-29T04:15:59;16.45;;;3.58;;
60233;SDS011;49514;43.538;-5.708;2023-12-29T04:18:25;14.23;;;3.67;;
60233;SDS011;49514;43.538;-5.708;2023-12-29T04:20:52;15.52;;;4.22;;
60233;SDS011;49514;43.538;-5.708;2023-12-29T04:23:19;19.35;;;4.07;;
60233;SDS011;49514;43.538;-5.708;2023-12-29T04:25:45;19.55;;;5.15;;
60233;SDS011;49514;43.538;-5.708;2023-12-29T04:28:12;20.02;;;5.57;;
60233;SDS011;49514;43.538;-5.708;2023-12-29T04:30:38;20.33;;;5.95;;
60233;SDS011;49514;43.538;-5.708;2023-12-29T04:33:06;26.15;;;6.32;;
60233;SDS011;49514;43.538;-5.708;2023-12-29T04:35:33;21.25;;;6.90;;
60233;SDS011;49514;43.538;-5.708;2023-12-29T04:37:59;27.85;;;6.75;;
60233;SDS011;49514;43.538;-5.708;2023-12-29T04:40:26;20.70;;;6.43;;
60233;SDS011;49514;43.538;-5.708;2023-12-29T04:42:52;21.63;;;6.75;;
60233;SDS011;49514;43.538;-5.708;2023-12-29T04:45:19;24.00;;;7.72;;
60233;SDS011;49514;43.538;-5.708;2023-12-29T04:47:45;23.90;;;7.57;;
60233;SDS011;49514;43.538;-5.708;2023-12-29T04:50:12;21.73;;;6.75;;
60233;SDS011;49514;43.538;-5.708;2023-12-29T04:52:39;22.63;;;7.30;;
60233;SDS011;49514;43.538;-5.708;2023-12-29T04:55:06;21.98;;;6.47;;
60233;SDS011;49514;43.538;-5.708;2023-12-29T04:57:32;17.88;;;5.63;;
60233;SDS011;49514;43.538;-5.708;2023-12-29T04:59:59;17.05;;;6.80;;
60233;SDS011;49514;43.538;-5.708;2023-12-29T05:02:25;18.67;;;5.50;;
60233;SDS011;49514;43.538;-5.708;2023-12-29T05:04:52;17.70;;;5.70;;
60233;SDS011;49514;43.538;-5.708;2023-12-29T05:07:19;23.48;;;6.28;;
60233;SDS011;49514;43.538;-5.708;2023-12-29T05:09:45;19.60;;;6.28;;
60233;SDS011;49514;43.538;-5.708;2023-12-29T05:12:12;16.38;;;5.93;;
60233;SDS011;49514;43.538;-5.708;2023-12-29T05:14:38;19.58;;;6.65;;
60233;SDS011;49514;43.538;-5.708;2023-12-29T05:17:05;24.67;;;6.68;;
60233;SDS011;49514;43.538;-5.708;2023-12-29T05:19:32;19.30;;;6.05;;
60233;SDS011;49514;43.538;-5.708;2023-12-29T05:21:58;16.80;;;5.63;;
60233;SDS011;49514;43.538;-5.708;2023-12-29T05:24:25;20.48;;;6.13;;
60233;SDS011;49514;43.538;-5.708;2023-12-29T05:26:51;15.63;;;6.38;;
60233;SDS011;49514;43.538;-5.708;2023-12-29T05:29:18;17.00;;;6.70;;
60233;SDS011;49514;43.538;-5.708;2023-12-29T05:31:45;19.73;;;6.90;;
60233;SDS011;49514;43.538;-5.708;2023-12-29T05:34:11;22.70;;;7.03;;
60233;SDS011;49514;43.538;-5.708;2023-12-29T05:36:38;19.42;;;7.13;;
60233;SDS011;49514;43.538;-5.708;2023-12-29T05:39:05;19.20;;;6.80;;
60233;SDS011;49514;43.538;-5.708;2023-12-29T05:41:32;20.48;;;7.32;;
60233;SDS011;49514;43.538;-5.708;2023-12-29T05:43:58;18.85;;;6.63;;
60233;SDS011;49514;43.538;-5.708;2023-12-29T05:46:28;15.85;;;6.32;;
60233;SDS011;49514;43.538;-5.708;2023-12-29T05:48:54;18.45;;;6.82;;
60233;SDS011;49514;43.538;-5.708;2023-12-29T05:51:21;21.95;;;7.35;;
60233;SDS011;49514;43.538;-5.708;2023-12-29T05:53:48;20.50;;;6.22;;
60233;SDS011;49514;43.538;-5.708;2023-12-29T05:56:14;17.30;;;6.53;;
60233;SDS011;49514;43.538;-5.708;2023-12-29T05:58:41;19.60;;;7.05;;
60233;SDS011;49514;43.538;-5.708;2023-12-29T06:01:08;17.00;;;6.60;;
60233;SDS011;49514;43.538;-5.708;2023-12-29T06:03:35;23.52;;;7.30;;
60233;SDS011;49514;43.538;-5.708;2023-12-29T06:06:02;18.50;;;7.20;;
60233;SDS011;49514;43.538;-5.708;2023-12-29T06:08:29;21.52;;;7.63;;
60233;SDS011;49514;43.538;-5.708;2023-12-29T06:10:56;17.35;;;6.45;;
60233;SDS011;49514;43.538;-5.708;2023-12-29T06:13:24;18.20;;;6.55;;
60233;SDS011;49514;43.538;-5.708;2023-12-29T06:15:51;17.48;;;6.32;;
60233;SDS011;49514;43.538;-5.708;2023-12-29T06:18:18;18.65;;;7.72;;
60233;SDS011;49514;43.538;-5.708;2023-12-29T06:20:44;17.60;;;7.13;;
60233;SDS011;49514;43.538;-5.708;2023-12-29T06:23:11;15.45;;;7.00;;
60233;SDS011;49514;43.538;-5.708;2023-12-29T06:25:38;18.70;;;6.85;;
60233;SDS011;49514;43.538;-5.708;2023-12-29T06:28:07;18.48;;;7.30;;
60233;SDS011;49514;43.538;-5.708;2023-12-29T06:30:34;10.45;;;4.80;;
60233;SDS011;49514;43.538;-5.708;2023-12-29T06:33:01;12.57;;;4.80;;
60233;SDS011;49514;43.538;-5.708;2023-12-29T06:35:27;11.75;;;4.55;;
60233;SDS011;49514;43.538;-5.708;2023-12-29T06:37:54;8.98;;;3.90;;
60233;SDS011;49514;43.538;-5.708;2023-12-29T06:43:39;12.35;;;3.13;;
60233;SDS011;49514;43.538;-5.708;2023-12-29T06:46:06;9.48;;;2.95;;
60233;SDS011;49514;43.538;-5.708;2023-12-29T06:48:34;9.35;;;2.70;;
60233;SDS011;49514;43.538;-5.708;2023-12-29T06:51:02;10.93;;;2.72;;
60233;SDS011;49514;43.538;-5.708;2023-12-29T06:53:29;6.28;;;2.25;;
60233;SDS011;49514;43.538;-5.708;2023-12-29T06:55:56;5.63;;;2.83;;
60233;SDS011;49514;43.538;-5.708;2023-12-29T06:58:23;10.68;;;3.10;;
60233;SDS011;49514;43.538;-5.708;2023-12-29T07:00:49;10.60;;;3.42;;
60233;SDS011;49514;43.538;-5.708;2023-12-29T07:03:16;11.40;;;3.78;;
60233;SDS011;49514;43.538;-5.708;2023-12-29T07:05:42;13.23;;;4.30;;
60233;SDS011;49514;43.538;-5.708;2023-12-29T07:08:12;12.15;;;4.18;;
60233;SDS011;49514;43.538;-5.708;2023-12-29T07:10:40;12.40;;;4.57;;
60233;SDS011;49514;43.538;-5.708;2023-12-29T07:13:07;15.98;;;4.50;;
60233;SDS011;49514;43.538;-5.708;2023-12-29T07:15:33;15.55;;;5.68;;
60233;SDS011;49514;43.538;-5.708;2023-12-29T07:18:00;16.98;;;6.38;;
60233;SDS011;49514;43.538;-5.708;2023-12-29T07:20:27;22.02;;;7.60;;
60233;SDS011;49514;43.538;-5.708;2023-12-29T07:22:54;23.25;;;10.38;;
60233;SDS011;49514;43.538;-5.708;2023-12-29T07:25:21;29.23;;;12.63;;
60233;SDS011;49514;43.538;-5.708;2023-12-29T07:27:47;31.20;;;13.70;;
60233;SDS011;49514;43.538;-5.708;2023-12-29T07:30:14;31.52;;;14.35;;
60233;SDS011;49514;43.538;-5.708;2023-12-29T07:32:41;33.78;;;14.30;;
60233;SDS011;49514;43.538;-5.708;2023-12-29T07:35:08;30.60;;;12.45;;
60233;SDS011;49514;43.538;-5.708;2023-12-29T07:37:35;29.55;;;12.00;;
60233;SDS011;49514;43.538;-5.708;2023-12-29T07:40:02;31.65;;;12.63;;
60233;SDS011;49514;43.538;-5.708;2023-12-29T07:42:29;32.03;;;13.73;;
60233;SDS011;49514;43.538;-5.708;2023-12-29T07:44:56;27.95;;;12.00;;
60233;SDS011;49514;43.538;-5.708;2023-12-29T07:47:22;32.63;;;13.15;;
60233;SDS011;49514;43.538;-5.708;2023-12-29T07:49:49;33.42;;;12.82;;
60233;SDS011;49514;43.538;-5.708;2023-12-29T07:52:16;32.50;;;12.68;;
60233;SDS011;49514;43.538;-5.708;2023-12-29T07:54:43;28.55;;;11.63;;
60233;SDS011;49514;43.538;-5.708;2023-12-29T07:57:09;28.52;;;11.13;;
60233;SDS011;49514;43.538;-5.708;2023-12-29T07:59:36;17.77;;;8.88;;
60233;SDS011;49514;43.538;-5.708;2023-12-29T08:02:03;18.20;;;7.20;;
60233;SDS011;49514;43.538;-5.708;2023-12-29T08:04:29;13.32;;;5.95;;
60233;SDS011;49514;43.538;-5.708;2023-12-29T08:06:56;12.35;;;5.30;;
60233;SDS011;49514;43.538;-5.708;2023-12-29T08:09:22;14.23;;;5.25;;
60233;SDS011;49514;43.538;-5.708;2023-12-29T08:11:49;15.73;;;4.78;;
60233;SDS011;49514;43.538;-5.708;2023-12-29T08:14:16;10.07;;;4.53;;
60233;SDS011;49514;43.538;-5.708;2023-12-29T08:16:43;14.02;;;4.10;;
60233;SDS011;49514;43.538;-5.708;2023-12-29T08:19:10;8.85;;;2.72;;
60233;SDS011;49514;43.538;-5.708;2023-12-29T08:21:36;12.95;;;3.03;;
60233;SDS011;49514;43.538;-5.708;2023-12-29T08:24:03;12.80;;;3.25;;
60233;SDS011;49514;43.538;-5.708;2023-12-29T08:26:30;8.55;;;3.42;;
60233;SDS011;49514;43.538;-5.708;2023-12-29T08:28:56;9.50;;;3.38;;
60233;SDS011;49514;43.538;-5.708;2023-12-29T08:31:23;10.85;;;2.83;;
60233;SDS011;49514;43.538;-5.708;2023-12-29T08:33:49;8.77;;;2.75;;
60233;SDS011;49514;43.538;-5.708;2023-12-29T08:36:18;8.18;;;3.10;;
60233;SDS011;49514;43.538;-5.708;2023-12-29T08:38:46;7.20;;;2.92;;
60233;SDS011;49514;43.538;-5.708;2023-12-29T08:41:13;11.25;;;3.30;;
60233;SDS011;49514;43.538;-5.708;2023-12-29T08:43:40;8.20;;;3.00;;
60233;SDS011;49514;43.538;-5.708;2023-12-29T08:46:07;14.20;;;3.35;;
60233;SDS011;49514;43.538;-5.708;2023-12-29T08:48:34;8.88;;;3.13;;
60233;SDS011;49514;43.538;-5.708;2023-12-29T08:51:00;11.02;;;4.10;;
60233;SDS011;49514;43.538;-5.708;2023-12-29T08:53:28;10.73;;;5.30;;
60233;SDS011;49514;43.538;-5.708;2023-12-29T08:55:57;10.23;;;4.18;;
60233;SDS011;49514;43.538;-5.708;2023-12-29T08:58:26;11.25;;;4.38;;
60233;SDS011;49514;43.538;-5.708;2023-12-29T09:00:52;11.63;;;4.25;;
60233;SDS011;49514;43.538;-5.708;2023-12-29T09:03:20;13.50;;;4.25;;
60233;SDS011;49514;43.538;-5.708;2023-12-29T09:05:47;10.55;;;4.80;;
60233;SDS011;49514;43.538;-5.708;2023-12-29T09:08:13;12.88;;;5.28;;
60233;SDS011;49514;43.538;-5.708;2023-12-29T09:10:40;13.65;;;4.80;;
60233;SDS011;49514;43.538;-5.708;2023-12-29T09:13:07;13.77;;;4.70;;
60233;SDS011;49514;43.538;-5.708;2023-12-29T09:15:33;9.63;;;4.88;;
60233;SDS011;49514;43.538;-5.708;2023-12-29T09:18:03;11.00;;;5.10;;
60233;SDS011;49514;43.538;-5.708;2023-12-29T09:20:30;13.13;;;4.82;;
60233;SDS011;49514;43.538;-5.708;2023-12-29T09:22:56;11.18;;;4.90;;
60233;SDS011;49514;43.538;-5.708;2023-12-29T09:25:24;15.32;;;5.70;;
60233;SDS011;49514;43.538;-5.708;2023-12-29T09:27:50;13.63;;;6.00;;
60233;SDS011;49514;43.538;-5.708;2023-12-29T09:30:18;16.30;;;5.82;;
60233;SDS011;49514;43.538;-5.708;2023-12-29T09:32:45;13.40;;;4.82;;
60233;SDS011;49514;43.538;-5.708;2023-12-29T09:35:12;15.63;;;4.50;;
60233;SDS011;49514;43.538;-5.708;2023-12-29T09:37:39;15.40;;;4.80;;
60233;SDS011;49514;43.538;-5.708;2023-12-29T09:40:05;9.98;;;4.00;;
60233;SDS011;49514;43.538;-5.708;2023-12-29T09:42:33;9.00;;;3.25;;
60233;SDS011;49514;43.538;-5.708;2023-12-29T09:45:03;10.35;;;3.85;;
60233;SDS011;49514;43.538;-5.708;2023-12-29T09:47:40;13.10;;;3.80;;
60233;SDS011;49514;43.538;-5.708;2023-12-29T09:50:10;11.38;;;4.03;;
60233;SDS011;49514;43.538;-5.708;2023-12-29T09:52:38;9.18;;;3.80;;
60233;SDS011;49514;43.538;-5.708;2023-12-29T09:55:09;12.40;;;5.38;;
60233;SDS011;49514;43.538;-5.708;2023-12-29T09:57:37;10.57;;;4.45;;
60233;SDS011;49514;43.538;-5.708;2023-12-29T10:00:05;10.88;;;5.20;;
60233;SDS011;49514;43.538;-5.708;2023-12-29T10:02:38;14.60;;;5.32;;
60233;SDS011;49514;43.538;-5.708;2023-12-29T10:05:07;9.77;;;4.30;;
60233;SDS011;49514;43.538;-5.708;2023-12-29T10:07:36;15.90;;;3.97;;
60233;SDS011;49514;43.538;-5.708;2023-12-29T10:10:06;10.93;;;4.10;;
60233;SDS011;49514;43.538;-5.708;2023-12-29T10:12:33;7.07;;;3.80;;
60233;SDS011;49514;43.538;-5.708;2023-12-29T10:23:25;11.10;;;3.88;;
60233;SDS011;49514;43.538;-5.708;2023-12-29T10:26:03;9.63;;;4.15;;
60233;SDS011;49514;43.538;-5.708;2023-12-29T10:28:31;9.02;;;3.78;;
60233;SDS011;49514;43.538;-5.708;2023-12-29T10:30:58;8.35;;;3.50;;
60233;SDS011;49514;43.538;-5.708;2023-12-29T10:33:25;7.72;;;3.50;;
60233;SDS011;49514;43.538;-5.708;2023-12-29T10:35:59;4.75;;;3.28;;
60233;SDS011;49514;43.538;-5.708;2023-12-29T10:38:29;7.45;;;3.78;;
60233;SDS011;49514;43.538;-5.708;2023-12-29T10:43:42;20.70;;;6.80;;
60233;SDS011;49514;43.538;-5.708;2023-12-29T10:46:20;15.52;;;6.47;;
60233;SDS011;49514;43.538;-5.708;2023-12-29T10:48:47;10.25;;;4.38;;
60233;SDS011;49514;43.538;-5.708;2023-12-29T10:51:14;9.43;;;4.30;;
60233;SDS011;49514;43.538;-5.708;2023-12-29T10:53:41;10.38;;;4.40;;
60233;SDS011;49514;43.538;-5.708;2023-12-29T10:56:17;11.38;;;5.13;;
60233;SDS011;49514;43.538;-5.708;2023-12-29T10:59:00;11.63;;;4.50;;
60233;SDS011;49514;43.538;-5.708;2023-12-29T11:01:32;9.48;;;4.47;;
60233;SDS011;49514;43.538;-5.708;2023-12-29T12:26:59;9.52;;;5.32;;
60233;SDS011;49514;43.538;-5.708;2023-12-29T12:29:28;11.27;;;6.20;;
60233;SDS011;49514;43.538;-5.708;2023-12-29T12:31:55;11.60;;;5.68;;
60233;SDS011;49514;43.538;-5.708;2023-12-29T12:34:22;9.63;;;5.25;;
60233;SDS011;49514;43.538;-5.708;2023-12-29T12:36:50;14.23;;;5.63;;
60233;SDS011;49514;43.538;-5.708;2023-12-29T12:39:17;12.23;;;5.03;;
60233;SDS011;49514;43.538;-5.708;2023-12-29T12:51:45;3.70;;;2.15;;
60233;SDS011;49514;43.538;-5.708;2023-12-29T12:54:12;8.63;;;2.30;;
60233;SDS011;49514;43.538;-5.708;2023-12-29T12:56:44;5.90;;;3.10;;
60233;SDS011;49514;43.538;-5.708;2023-12-29T16:58:28;10.13;;;2.75;;
60233;SDS011;49514;43.538;-5.708;2023-12-29T17:00:55;9.85;;;2.90;;
60233;SDS011;49514;43.538;-5.708;2023-12-29T17:03:22;10.23;;;2.45;;
60233;SDS011;49514;43.538;-5.708;2023-12-29T17:05:49;7.82;;;2.50;;
60233;SDS011;49514;43.538;-5.708;2023-12-29T17:08:15;12.52;;;3.47;;
60233;SDS011;49514;43.538;-5.708;2023-12-29T17:10:42;9.10;;;2.90;;
60233;SDS011;49514;43.538;-5.708;2023-12-29T17:13:09;12.10;;;2.78;;
60233;SDS011;49514;43.538;-5.708;2023-12-29T17:15:36;9.05;;;2.58;;
60233;SDS011;49514;43.538;-5.708;2023-12-29T17:18:02;14.10;;;3.75;;
60233;SDS011;49514;43.538;-5.708;2023-12-29T17:20:30;11.15;;;3.25;;
60233;SDS011;49514;43.538;-5.708;2023-12-29T17:22:57;8.27;;;3.08;;
60233;SDS011;49514;43.538;-5.708;2023-12-29T17:25:23;7.28;;;2.67;;
60233;SDS011;49514;43.538;-5.708;2023-12-29T17:27:51;11.65;;;3.30;;
60233;SDS011;49514;43.538;-5.708;2023-12-29T17:30:18;11.40;;;3.65;;
60233;SDS011;49514;43.538;-5.708;2023-12-29T17:32:45;13.55;;;3.60;;
60233;SDS011;49514;43.538;-5.708;2023-12-29T17:35:11;12.77;;;4.30;;
60233;SDS011;49514;43.538;-5.708;2023-12-29T17:37:38;12.82;;;4.88;;
60233;SDS011;49514;43.538;-5.708;2023-12-29T17:40:05;17.52;;;4.45;;
60233;SDS011;49514;43.538;-5.708;2023-12-29T17:42:32;16.40;;;4.18;;
60233;SDS011;49514;43.538;-5.708;2023-12-29T17:44:59;11.48;;;2.83;;
60233;SDS011;49514;43.538;-5.708;2023-12-29T17:47:26;11.07;;;2.95;;
60233;SDS011;49514;43.538;-5.708;2023-12-29T17:49:54;8.60;;;3.60;;
60233;SDS011;49514;43.538;-5.708;2023-12-29T17:52:22;14.68;;;2.80;;
60233;SDS011;49514;43.538;-5.708;2023-12-29T17:54:49;12.23;;;3.67;;
60233;SDS011;49514;43.538;-5.708;2023-12-29T17:57:15;12.77;;;3.15;;
60233;SDS011;49514;43.538;-5.708;2023-12-29T17:59:42;5.60;;;2.75;;
60233;SDS011;49514;43.538;-5.708;2023-12-29T18:02:09;12.05;;;3.53;;
60233;SDS011;49514;43.538;-5.708;2023-12-29T18:04:38;10.80;;;3.70;;
60233;SDS011;49514;43.538;-5.708;2023-12-29T18:07:04;11.18;;;3.42;;
60233;SDS011;49514;43.538;-5.708;2023-12-29T18:09:31;8.48;;;3.40;;
60233;SDS011;49514;43.538;-5.708;2023-12-29T18:11:58;11.93;;;3.40;;
60233;SDS011;49514;43.538;-5.708;2023-12-29T18:14:24;8.98;;;3.95;;
60233;SDS011;49514;43.538;-5.708;2023-12-29T18:16:52;9.23;;;4.30;;
60233;SDS011;49514;43.538;-5.708;2023-12-29T18:19:19;16.85;;;4.20;;
60233;SDS011;49514;43.538;-5.708;2023-12-29T18:21:48;12.52;;;4.80;;
60233;SDS011;49514;43.538;-5.708;2023-12-29T18:24:15;10.18;;;3.75;;
60233;SDS011;49514;43.538;-5.708;2023-12-29T18:26:42;14.02;;;3.90;;
60233;SDS011;49514;43.538;-5.708;2023-12-29T18:29:09;19.25;;;4.40;;
60233;SDS011;49514;43.538;-5.708;2023-12-29T18:31:40;14.40;;;6.82;;
60233;SDS011;49514;43.538;-5.708;2023-12-29T18:34:08;19.10;;;7.13;;
60233;SDS011;49514;43.538;-5.708;2023-12-29T18:36:36;18.50;;;6.90;;
60233;SDS011;49514;43.538;-5.708;2023-12-29T18:39:02;14.27;;;6.53;;
60233;SDS011;49514;43.538;-5.708;2023-12-29T18:41:29;20.08;;;6.15;;
60233;SDS011;49514;43.538;-5.708;2023-12-29T18:43:56;15.52;;;6.00;;
60233;SDS011;49514;43.538;-5.708;2023-12-29T18:46:23;22.88;;;6.90;;
60233;SDS011;49514;43.538;-5.708;2023-12-29T18:48:50;18.48;;;6.00;;
60233;SDS011;49514;43.538;-5.708;2023-12-29T18:51:17;17.42;;;6.13;;
60233;SDS011;49514;43.538;-5.708;2023-12-29T18:53:44;13.50;;;5.45;;
60233;SDS011;49514;43.538;-5.708;2023-12-29T18:56:12;13.93;;;5.72;;
60233;SDS011;49514;43.538;-5.708;2023-12-29T18:58:39;15.40;;;6.00;;
60233;SDS011;49514;43.538;-5.708;2023-12-29T19:01:06;16.25;;;6.18;;
60233;SDS011;49514;43.538;-5.708;2023-12-29T19:03:32;22.08;;;7.90;;
60233;SDS011;49514;43.538;-5.708;2023-12-29T19:06:02;19.27;;;7.57;;
60233;SDS011;49514;43.538;-5.708;2023-12-29T19:08:30;16.65;;;7.28;;
60233;SDS011;49514;43.538;-5.708;2023-12-29T19:10:57;19.67;;;7.75;;
60233;SDS011;49514;43.538;-5.708;2023-12-29T19:13:24;16.55;;;8.00;;
60233;SDS011;49514;43.538;-5.708;2023-12-29T19:15:51;14.57;;;7.38;;
60233;SDS011;49514;43.538;-5.708;2023-12-29T19:18:19;18.55;;;7.30;;
60233;SDS011;49514;43.538;-5.708;2023-12-29T19:20:45;15.00;;;7.60;;
60233;SDS011;49514;43.538;-5.708;2023-12-29T19:23:12;19.95;;;7.47;;
60233;SDS011;49514;43.538;-5.708;2023-12-29T19:25:43;17.35;;;7.75;;
60233;SDS011;49514;43.538;-5.708;2023-12-29T19:28:10;18.38;;;7.53;;
60233;SDS011;49514;43.538;-5.708;2023-12-29T19:30:38;13.65;;;5.70;;
60233;SDS011;49514;43.538;-5.708;2023-12-29T19:33:07;18.00;;;5.87;;
60233;SDS011;49514;43.538;-5.708;2023-12-29T19:35:34;15.00;;;6.17;;
60233;SDS011;49514;43.538;-5.708;2023-12-29T19:38:02;14.38;;;6.30;;
60233;SDS011;49514;43.538;-5.708;2023-12-29T19:40:29;13.05;;;6.35;;
60233;SDS011;49514;43.538;-5.708;2023-12-29T19:42:56;11.63;;;5.85;;
60233;SDS011;49514;43.538;-5.708;2023-12-29T19:45:22;15.40;;;6.13;;
60233;SDS011;49514;43.538;-5.708;2023-12-29T19:47:50;15.48;;;7.22;;
60233;SDS011;49514;43.538;-5.708;2023-12-29T19:50:17;17.67;;;7.32;;
60233;SDS011;49514;43.538;-5.708;2023-12-29T19:52:44;20.88;;;7.88;;
60233;SDS011;49514;43.538;-5.708;2023-12-29T19:55:10;19.90;;;6.90;;
60233;SDS011;49514;43.538;-5.708;2023-12-29T19:57:37;18.23;;;7.35;;
60233;SDS011;49514;43.538;-5.708;2023-12-29T20:00:04;19.00;;;7.55;;
60233;SDS011;49514;43.538;-5.708;2023-12-29T20:02:33;21.85;;;8.35;;
60233;SDS011;49514;43.538;-5.708;2023-12-29T20:04:59;21.88;;;7.85;;
60233;SDS011;49514;43.538;-5.708;2023-12-29T20:07:26;20.00;;;7.13;;
60233;SDS011;49514;43.538;-5.708;2023-12-29T20:09:54;21.00;;;7.05;;
60233;SDS011;49514;43.538;-5.708;2023-12-29T20:12:21;20.17;;;7.18;;